sensor_id;sensor_type;location;lat;lon;timestamp;pressure;altitude;pressure_sealevel;temperature;humidity
13478;BME280;12598;62.382;17.344;2023-02-19T00:00:14;99426.38;;;16.98;21.80
13478;BME280;12598;62.382;17.344;2023-02-19T00:01:19;99422.84;;;16.97;21.66
13478;BME280;12598;62.382;17.344;2023-02-19T00:02:21;99430.84;;;16.97;21.91
13478;BME280;12598;62.382;17.344;2023-02-19T00:03:23;99423.84;;;16.96;21.91
13478;BME280;12598;62.382;17.344;2023-02-19T00:04:25;99421.38;;;16.95;21.67
13478;BME280;12598;62.382;17.344;2023-02-19T00:05:27;99429.53;;;16.93;21.72
13478;BME280;12598;62.382;17.344;2023-02-19T00:06:31;99434.22;;;16.91;21.87
13478;BME280;12598;62.382;17.344;2023-02-19T00:07:33;99436.06;;;16.91;22.08
13478;BME280;12598;62.382;17.344;2023-02-19T00:08:35;99437.25;;;16.88;21.62
13478;BME280;12598;62.382;17.344;2023-02-19T00:09:37;99429.22;;;16.88;21.87
13478;BME280;12598;62.382;17.344;2023-02-19T00:10:39;99432.09;;;16.87;21.98
13478;BME280;12598;62.382;17.344;2023-02-19T00:11:41;99414.25;;;16.79;21.88
13478;BME280;12598;62.382;17.344;2023-02-19T00:12:43;99424.22;;;16.85;22.09
13478;BME280;12598;62.382;17.344;2023-02-19T00:13:47;99433.78;;;16.80;21.95
13478;BME280;12598;62.382;17.344;2023-02-19T00:14:50;99435.91;;;16.84;21.81
13478;BME280;12598;62.382;17.344;2023-02-19T00:15:52;99426.44;;;16.82;21.74
13478;BME280;12598;62.382;17.344;2023-02-19T00:16:53;99428.44;;;16.80;21.84
13478;BME280;12598;62.382;17.344;2023-02-19T00:17:55;99436.44;;;16.80;22.07
13478;BME280;12598;62.382;17.344;2023-02-19T00:18:59;99440.28;;;16.77;22.01
13478;BME280;12598;62.382;17.344;2023-02-19T00:20:01;99440.28;;;16.77;21.85
13478;BME280;12598;62.382;17.344;2023-02-19T00:21:03;99435.09;;;16.76;21.98
13478;BME280;12598;62.382;17.344;2023-02-19T00:22:05;99425.44;;;16.75;22.20
13478;BME280;12598;62.382;17.344;2023-02-19T00:23:07;99440.63;;;16.74;22.24
13478;BME280;12598;62.382;17.344;2023-02-19T00:24:11;99442.63;;;16.72;22.21
13478;BME280;12598;62.382;17.344;2023-02-19T00:25:13;99433.63;;;16.73;22.08
13478;BME280;12598;62.382;17.344;2023-02-19T00:26:15;99431.97;;;16.72;21.90
13478;BME280;12598;62.382;17.344;2023-02-19T00:27:21;99440.97;;;16.71;22.10
13478;BME280;12598;62.382;17.344;2023-02-19T00:28:23;99422.44;;;16.70;22.26
13478;BME280;12598;62.382;17.344;2023-02-19T00:29:26;99441.13;;;16.70;22.27
13478;BME280;12598;62.382;17.344;2023-02-19T00:30:28;99444.78;;;16.69;22.05
13478;BME280;12598;62.382;17.344;2023-02-19T00:31:34;99438.78;;;16.67;22.21
13478;BME280;12598;62.382;17.344;2023-02-19T00:32:36;99436.78;;;16.69;22.05
13478;BME280;12598;62.382;17.344;2023-02-19T00:33:38;99436.97;;;16.67;22.07
13478;BME280;12598;62.382;17.344;2023-02-19T00:34:40;99445.13;;;16.66;22.11
13478;BME280;12598;62.382;17.344;2023-02-19T00:35:41;99430.97;;;16.65;22.33
13478;BME280;12598;62.382;17.344;2023-02-19T00:36:44;99431.66;;;16.59;22.07
13478;BME280;12598;62.382;17.344;2023-02-19T00:37:45;99433.81;;;16.64;22.21
13478;BME280;12598;62.382;17.344;2023-02-19T00:38:48;99436.66;;;16.62;22.47
13478;BME280;12598;62.382;17.344;2023-02-19T00:39:50;99423.66;;;16.51;22.19
13478;BME280;12598;62.382;17.344;2023-02-19T00:40:52;99443.00;;;16.61;22.04
13478;BME280;12598;62.382;17.344;2023-02-19T00:41:56;99435.34;;;16.58;22.22
13478;BME280;12598;62.382;17.344;2023-02-19T00:42:58;99454.69;;;16.60;22.32
13478;BME280;12598;62.382;17.344;2023-02-19T00:44:05;99446.00;;;16.58;22.21
13478;BME280;12598;62.382;17.344;2023-02-19T00:45:07;99437.81;;;16.60;22.11
13478;BME280;12598;62.382;17.344;2023-02-19T00:46:09;99446.00;;;16.58;22.15
13478;BME280;12598;62.382;17.344;2023-02-19T00:47:11;99449.66;;;16.57;22.29
13478;BME280;12598;62.382;17.344;2023-02-19T00:48:13;99446.97;;;16.57;22.46
13478;BME280;12598;62.382;17.344;2023-02-19T00:49:24;99447.16;;;16.56;22.49
13478;BME280;12598;62.382;17.344;2023-02-19T00:50:26;99440.97;;;16.55;22.30
13478;BME280;12598;62.382;17.344;2023-02-19T00:51:30;99449.84;;;16.56;22.45
13478;BME280;12598;62.382;17.344;2023-02-19T00:52:32;99446.31;;;16.55;22.29
13478;BME280;12598;62.382;17.344;2023-02-19T00:53:34;99450.00;;;16.54;22.51
13478;BME280;12598;62.382;17.344;2023-02-19T00:54:36;99447.50;;;16.53;22.41
13478;BME280;12598;62.382;17.344;2023-02-19T00:55:38;99454.66;;;16.52;22.27
13478;BME280;12598;62.382;17.344;2023-02-19T00:56:40;99445.84;;;16.52;22.41
13478;BME280;12598;62.382;17.344;2023-02-19T00:57:41;99449.50;;;16.51;22.38
13478;BME280;12598;62.382;17.344;2023-02-19T00:58:43;99455.00;;;16.49;22.17
13478;BME280;12598;62.382;17.344;2023-02-19T00:59:45;99447.84;;;16.50;22.26
13478;BME280;12598;62.382;17.344;2023-02-19T01:00:48;99447.19;;;16.48;22.30
13478;BME280;12598;62.382;17.344;2023-02-19T01:01:50;99456.84;;;16.49;22.54
13478;BME280;12598;62.382;17.344;2023-02-19T01:02:52;99468.53;;;16.48;22.37
13478;BME280;12598;62.382;17.344;2023-02-19T01:03:54;99467.69;;;16.47;22.70
13478;BME280;12598;62.382;17.344;2023-02-19T01:04:56;99471.34;;;16.46;22.51
13478;BME280;12598;62.382;17.344;2023-02-19T01:05:58;99466.00;;;16.46;22.44
13478;BME280;12598;62.382;17.344;2023-02-19T01:07:00;99467.03;;;16.45;22.41
13478;BME280;12598;62.382;17.344;2023-02-19T01:08:02;99448.88;;;16.41;22.69
13478;BME280;12598;62.382;17.344;2023-02-19T01:09:05;99472.53;;;16.44;22.59
13478;BME280;12598;62.382;17.344;2023-02-19T01:10:08;99474.34;;;16.43;22.56
13478;BME280;12598;62.382;17.344;2023-02-19T01:11:10;99453.00;;;16.43;22.52
13478;BME280;12598;62.382;17.344;2023-02-19T01:12:13;99479.69;;;16.43;22.58
13478;BME280;12598;62.382;17.344;2023-02-19T01:13:15;99446.34;;;16.24;22.76
13478;BME280;12598;62.382;17.344;2023-02-19T01:14:17;99464.69;;;16.42;22.48
13478;BME280;12598;62.382;17.344;2023-02-19T01:15:19;99476.34;;;16.41;22.48
13478;BME280;12598;62.382;17.344;2023-02-19T01:16:21;99474.69;;;16.40;22.56
13478;BME280;12598;62.382;17.344;2023-02-19T01:17:28;99472.88;;;16.41;22.53
13478;BME280;12598;62.382;17.344;2023-02-19T01:18:30;99464.88;;;16.41;22.55
13478;BME280;12598;62.382;17.344;2023-02-19T01:19:32;99464.88;;;16.41;22.36
13478;BME280;12598;62.382;17.344;2023-02-19T01:20:37;99471.38;;;16.38;22.50
13478;BME280;12598;62.382;17.344;2023-02-19T01:21:39;99465.03;;;16.39;22.60
13478;BME280;12598;62.382;17.344;2023-02-19T01:22:42;99473.88;;;16.40;22.49
13478;BME280;12598;62.382;17.344;2023-02-19T01:23:44;99476.69;;;16.38;22.48
13478;BME280;12598;62.382;17.344;2023-02-19T01:24:46;99466.19;;;16.37;22.53
13478;BME280;12598;62.382;17.344;2023-02-19T01:25:48;99465.38;;;16.36;22.51
13478;BME280;12598;62.382;17.344;2023-02-19T01:26:50;99470.69;;;16.36;22.45
13478;BME280;12598;62.382;17.344;2023-02-19T01:27:52;99463.84;;;16.34;22.63
13478;BME280;12598;62.382;17.344;2023-02-19T01:28:54;99422.84;;;16.11;22.77
13478;BME280;12598;62.382;17.344;2023-02-19T01:29:56;99472.81;;;16.33;22.75
13478;BME280;12598;62.382;17.344;2023-02-19T01:31:02;99472.00;;;16.32;22.49
13478;BME280;12598;62.382;17.344;2023-02-19T01:32:05;99460.19;;;16.35;22.87
13478;BME280;12598;62.382;17.344;2023-02-19T01:33:07;99461.66;;;16.29;22.62
13478;BME280;12598;62.382;17.344;2023-02-19T01:34:10;99442.34;;;16.20;22.55
13478;BME280;12598;62.382;17.344;2023-02-19T01:35:13;99472.81;;;16.33;22.56
13478;BME280;12598;62.382;17.344;2023-02-19T01:36:15;99463.16;;;16.32;22.69
13478;BME280;12598;62.382;17.344;2023-02-19T01:37:17;99470.34;;;16.31;22.35
13478;BME280;12598;62.382;17.344;2023-02-19T01:38:19;99437.00;;;16.12;22.53
13478;BME280;12598;62.382;17.344;2023-02-19T01:39:21;99452.16;;;16.27;22.74
13478;BME280;12598;62.382;17.344;2023-02-19T01:40:23;99463.50;;;16.29;22.63
13478;BME280;12598;62.382;17.344;2023-02-19T01:41:25;99470.69;;;16.28;22.79
13478;BME280;12598;62.382;17.344;2023-02-19T01:42:28;99464.00;;;16.25;22.49
13478;BME280;12598;62.382;17.344;2023-02-19T01:43:32;99455.69;;;16.20;22.61
13478;BME280;12598;62.382;17.344;2023-02-19T01:45:38;99471.81;;;16.26;22.90
13478;BME280;12598;62.382;17.344;2023-02-19T01:46:41;99469.00;;;16.27;22.56
13478;BME280;12598;62.382;17.344;2023-02-19T01:47:45;99475.16;;;16.28;22.87
13478;BME280;12598;62.382;17.344;2023-02-19T01:48:47;99463.69;;;16.27;22.83
13478;BME280;12598;62.382;17.344;2023-02-19T01:49:53;99451.50;;;16.25;22.50
13478;BME280;12598;62.382;17.344;2023-02-19T01:51:04;99462.00;;;16.27;22.43
13478;BME280;12598;62.382;17.344;2023-02-19T01:52:17;99464.50;;;16.28;22.53
13478;BME280;12598;62.382;17.344;2023-02-19T01:53:23;99460.81;;;16.29;22.84
13478;BME280;12598;62.382;17.344;2023-02-19T01:54:32;99473.34;;;16.28;22.73
13478;BME280;12598;62.382;17.344;2023-02-19T01:55:35;99456.34;;;16.22;22.75
13478;BME280;12598;62.382;17.344;2023-02-19T01:56:39;99471.00;;;16.26;22.50
13478;BME280;12598;62.382;17.344;2023-02-19T01:57:45;99474.69;;;16.25;22.34
13478;BME280;12598;62.382;17.344;2023-02-19T01:58:50;99457.69;;;16.18;22.90
13478;BME280;12598;62.382;17.344;2023-02-19T01:59:56;99478.34;;;16.24;22.62
13478;BME280;12598;62.382;17.344;2023-02-19T02:01:01;99487.34;;;16.23;22.55
13478;BME280;12598;62.382;17.344;2023-02-19T02:02:04;99489.00;;;16.24;22.59
13478;BME280;12598;62.382;17.344;2023-02-19T02:03:06;99483.84;;;16.22;22.80
13478;BME280;12598;62.382;17.344;2023-02-19T02:04:12;99484.84;;;16.21;22.74
13478;BME280;12598;62.382;17.344;2023-02-19T02:05:35;99474.16;;;16.21;22.50
13478;BME280;12598;62.382;17.344;2023-02-19T02:06:47;99486.16;;;16.25;22.76
13478;BME280;12598;62.382;17.344;2023-02-19T02:07:50;99483.69;;;16.24;22.73
13478;BME280;12598;62.382;17.344;2023-02-19T02:09:11;99484.50;;;16.24;22.57
13478;BME280;12598;62.382;17.344;2023-02-19T02:10:33;99502.50;;;16.22;22.54
13478;BME280;12598;62.382;17.344;2023-02-19T02:11:36;99494.69;;;16.21;22.70
13478;BME280;12598;62.382;17.344;2023-02-19T02:12:40;99495.84;;;16.18;22.73
13478;BME280;12598;62.382;17.344;2023-02-19T02:13:42;99506.84;;;16.15;22.48
13478;BME280;12598;62.382;17.344;2023-02-19T02:14:46;99471.16;;;16.00;22.45
13478;BME280;12598;62.382;17.344;2023-02-19T02:16:12;99506.50;;;16.18;23.01
13478;BME280;12598;62.382;17.344;2023-02-19T02:22:28;99501.69;;;16.22;22.80
13478;BME280;12598;62.382;17.344;2023-02-19T02:23:21;99499.69;;;16.24;22.56
13478;BME280;12598;62.382;17.344;2023-02-19T02:26:03;99506.00;;;16.23;22.79
13478;BME280;12598;62.382;17.344;2023-02-19T02:31:13;99495.00;;;16.18;22.74
13478;BME280;12598;62.382;17.344;2023-02-19T02:32:24;99492.50;;;16.16;22.62
13478;BME280;12598;62.382;17.344;2023-02-19T02:33:33;99489.97;;;16.15;22.83
13478;BME280;12598;62.382;17.344;2023-02-19T02:34:59;99488.97;;;16.16;22.61
13478;BME280;12598;62.382;17.344;2023-02-19T02:37:08;99492.97;;;16.12;22.94
13478;BME280;12598;62.382;17.344;2023-02-19T02:38:13;99505.66;;;16.10;22.99
13478;BME280;12598;62.382;17.344;2023-02-19T02:39:19;99492.50;;;16.08;22.75
13478;BME280;12598;62.382;17.344;2023-02-19T02:40:22;99495.97;;;16.09;22.30
13478;BME280;12598;62.382;17.344;2023-02-19T02:41:24;99490.97;;;15.98;22.91
13478;BME280;12598;62.382;17.344;2023-02-19T02:42:26;99488.31;;;16.06;22.75
13478;BME280;12598;62.382;17.344;2023-02-19T02:43:42;99504.97;;;16.08;23.05
13478;BME280;12598;62.382;17.344;2023-02-19T02:44:44;99502.50;;;16.06;22.74
13478;BME280;12598;62.382;17.344;2023-02-19T02:46:10;99489.31;;;16.05;22.63
13478;BME280;12598;62.382;17.344;2023-02-19T02:47:12;99502.31;;;16.08;22.78
13478;BME280;12598;62.382;17.344;2023-02-19T02:48:44;99506.31;;;16.12;22.61
13478;BME280;12598;62.382;17.344;2023-02-19T02:49:48;99493.31;;;16.09;22.76
13478;BME280;12598;62.382;17.344;2023-02-19T02:51:15;99504.84;;;16.09;23.01
13478;BME280;12598;62.382;17.344;2023-02-19T02:52:24;99492.97;;;16.04;22.89
13478;BME280;12598;62.382;17.344;2023-02-19T02:55:09;99502.84;;;16.11;22.87
13478;BME280;12598;62.382;17.344;2023-02-19T02:56:13;99516.66;;;16.07;22.64
13478;BME280;12598;62.382;17.344;2023-02-19T02:57:16;99489.66;;;16.02;22.95
13478;BME280;12598;62.382;17.344;2023-02-19T02:58:24;99494.84;;;16.03;22.79
13478;BME280;12598;62.382;17.344;2023-02-19T02:59:33;99502.97;;;16.02;22.71
13478;BME280;12598;62.382;17.344;2023-02-19T03:00:37;99499.50;;;16.01;22.94
13478;BME280;12598;62.382;17.344;2023-02-19T03:02:13;99510.66;;;16.05;22.54
13478;BME280;12598;62.382;17.344;2023-02-19T03:03:21;99507.84;;;16.06;22.68
13478;BME280;12598;62.382;17.344;2023-02-19T03:04:54;99498.97;;;16.06;22.85
13478;BME280;12598;62.382;17.344;2023-02-19T03:06:20;99500.31;;;16.02;22.69
13478;BME280;12598;62.382;17.344;2023-02-19T03:07:26;99509.81;;;16.04;22.60
13478;BME280;12598;62.382;17.344;2023-02-19T03:08:37;99518.81;;;16.03;23.03
13478;BME280;12598;62.382;17.344;2023-02-19T03:09:41;99518.50;;;15.98;22.64
13478;BME280;12598;62.382;17.344;2023-02-19T03:11:50;99524.28;;;15.94;22.96
13478;BME280;12598;62.382;17.344;2023-02-19T03:13:27;99516.50;;;16.00;22.81
13478;BME280;12598;62.382;17.344;2023-02-19T03:14:54;99526.31;;;16.08;22.68
13478;BME280;12598;62.382;17.344;2023-02-19T03:16:27;99524.66;;;16.07;22.41
13478;BME280;12598;62.382;17.344;2023-02-19T03:17:54;99530.97;;;16.06;22.83
13478;BME280;12598;62.382;17.344;2023-02-19T03:19:16;99523.81;;;16.06;22.81
13478;BME280;12598;62.382;17.344;2023-02-19T03:20:22;99520.81;;;16.01;23.02
13478;BME280;12598;62.382;17.344;2023-02-19T03:21:27;99500.97;;;15.96;22.89
13478;BME280;12598;62.382;17.344;2023-02-19T03:22:34;99532.16;;;15.95;22.76
13478;BME280;12598;62.382;17.344;2023-02-19T03:23:37;99529.63;;;15.94;22.92
13478;BME280;12598;62.382;17.344;2023-02-19T03:25:04;99533.81;;;15.96;22.87
13478;BME280;12598;62.382;17.344;2023-02-19T03:26:27;99532.16;;;15.95;22.78
13478;BME280;12598;62.382;17.344;2023-02-19T03:27:30;99529.63;;;15.94;22.73
13478;BME280;12598;62.382;17.344;2023-02-19T03:28:37;99520.09;;;15.83;22.75
13478;BME280;12598;62.382;17.344;2023-02-19T03:30:04;99514.63;;;15.85;22.79
13478;BME280;12598;62.382;17.344;2023-02-19T03:31:16;99539.63;;;15.92;22.83
13478;BME280;12598;62.382;17.344;2023-02-19T03:32:29;99541.09;;;15.94;23.09
13478;BME280;12598;62.382;17.344;2023-02-19T03:33:32;99541.81;;;15.96;22.64
13478;BME280;12598;62.382;17.344;2023-02-19T03:34:43;99528.44;;;15.88;23.05
13478;BME280;12598;62.382;17.344;2023-02-19T03:35:57;99527.78;;;15.86;22.80
13478;BME280;12598;62.382;17.344;2023-02-19T03:37:17;99547.28;;;15.95;22.79
13478;BME280;12598;62.382;17.344;2023-02-19T03:38:36;99538.97;;;15.98;22.89
13478;BME280;12598;62.382;17.344;2023-02-19T03:39:42;99534.63;;;15.89;22.85
13478;BME280;12598;62.382;17.344;2023-02-19T03:41:06;99559.28;;;15.99;22.90
13478;BME280;12598;62.382;17.344;2023-02-19T03:42:34;99550.28;;;16.00;23.03
13478;BME280;12598;62.382;17.344;2023-02-19T03:43:47;99551.28;;;15.99;22.59
13478;BME280;12598;62.382;17.344;2023-02-19T03:45:17;99553.63;;;16.02;22.94
13478;BME280;12598;62.382;17.344;2023-02-19T03:46:35;99561.81;;;16.00;22.60
13478;BME280;12598;62.382;17.344;2023-02-19T03:50:41;99559.63;;;15.96;22.85
13478;BME280;12598;62.382;17.344;2023-02-19T03:51:50;99543.44;;;15.89;22.98
13478;BME280;12598;62.382;17.344;2023-02-19T03:53:15;99560.47;;;15.96;22.69
13478;BME280;12598;62.382;17.344;2023-02-19T03:55:57;99563.94;;;15.97;22.70
13478;BME280;12598;62.382;17.344;2023-02-19T03:57:20;99554.28;;;15.96;22.64
13478;BME280;12598;62.382;17.344;2023-02-19T03:58:39;99560.63;;;15.95;22.72
13478;BME280;12598;62.382;17.344;2023-02-19T03:59:54;99566.81;;;15.95;22.92
13478;BME280;12598;62.382;17.344;2023-02-19T04:03:36;99560.94;;;15.92;22.72
13478;BME280;12598;62.382;17.344;2023-02-19T04:04:50;99569.94;;;15.91;22.69
13478;BME280;12598;62.382;17.344;2023-02-19T04:06:00;99548.75;;;15.89;22.78
13478;BME280;12598;62.382;17.344;2023-02-19T04:07:04;99564.94;;;15.88;23.02
13478;BME280;12598;62.382;17.344;2023-02-19T04:08:14;99557.25;;;15.85;22.97
13478;BME280;12598;62.382;17.344;2023-02-19T04:09:25;99555.41;;;15.85;23.00
13478;BME280;12598;62.382;17.344;2023-02-19T04:10:36;99561.59;;;15.86;23.17
13478;BME280;12598;62.382;17.344;2023-02-19T04:11:40;99561.75;;;15.84;22.61
13478;BME280;12598;62.382;17.344;2023-02-19T04:12:47;99562.06;;;15.81;22.75
13478;BME280;12598;62.382;17.344;2023-02-19T04:13:59;99552.59;;;15.79;23.04
13478;BME280;12598;62.382;17.344;2023-02-19T04:15:05;99563.75;;;15.82;22.91
13478;BME280;12598;62.382;17.344;2023-02-19T04:16:16;99556.75;;;15.81;22.86
13478;BME280;12598;62.382;17.344;2023-02-19T04:17:24;99562.91;;;15.82;22.85
13478;BME280;12598;62.382;17.344;2023-02-19T04:18:30;99562.06;;;15.81;22.96
13478;BME280;12598;62.382;17.344;2023-02-19T04:19:35;99552.06;;;15.75;22.88
13478;BME280;12598;62.382;17.344;2023-02-19T04:20:41;99548.41;;;15.76;22.62
13478;BME280;12598;62.382;17.344;2023-02-19T04:21:45;99560.06;;;15.75;23.11
13478;BME280;12598;62.382;17.344;2023-02-19T04:22:47;99557.91;;;15.79;23.00
13478;BME280;12598;62.382;17.344;2023-02-19T04:23:50;99568.56;;;15.79;22.75
13478;BME280;12598;62.382;17.344;2023-02-19T04:24:52;99557.88;;;15.71;22.86
13478;BME280;12598;62.382;17.344;2023-02-19T04:25:58;99563.41;;;15.77;22.85
13478;BME280;12598;62.382;17.344;2023-02-19T04:27:01;99548.88;;;15.72;22.94
13478;BME280;12598;62.382;17.344;2023-02-19T04:28:04;99546.53;;;15.69;22.88
13478;BME280;12598;62.382;17.344;2023-02-19T04:29:06;99549.56;;;15.74;22.85
13478;BME280;12598;62.382;17.344;2023-02-19T04:30:11;99562.59;;;15.77;22.92
13478;BME280;12598;62.382;17.344;2023-02-19T04:31:13;99555.19;;;15.71;22.96
13478;BME280;12598;62.382;17.344;2023-02-19T04:32:15;99549.06;;;15.70;23.03
13478;BME280;12598;62.382;17.344;2023-02-19T04:33:17;99564.91;;;15.80;23.19
13478;BME280;12598;62.382;17.344;2023-02-19T04:34:19;99566.72;;;15.79;22.77
13478;BME280;12598;62.382;17.344;2023-02-19T04:35:21;99562.59;;;15.77;22.71
13478;BME280;12598;62.382;17.344;2023-02-19T04:36:23;99574.91;;;15.78;22.91
13478;BME280;12598;62.382;17.344;2023-02-19T04:37:24;99568.56;;;15.79;22.79
13478;BME280;12598;62.382;17.344;2023-02-19T04:38:26;99567.72;;;15.78;23.07
13478;BME280;12598;62.382;17.344;2023-02-19T04:39:28;99561.53;;;15.70;22.95
13478;BME280;12598;62.382;17.344;2023-02-19T04:40:30;99566.91;;;15.78;22.97
13478;BME280;12598;62.382;17.344;2023-02-19T04:41:32;99570.41;;;15.78;22.86
13478;BME280;12598;62.382;17.344;2023-02-19T04:42:34;99579.25;;;15.79;23.16
13478;BME280;12598;62.382;17.344;2023-02-19T04:43:36;99572.25;;;15.78;22.99
13478;BME280;12598;62.382;17.344;2023-02-19T04:44:38;99573.06;;;15.78;23.17
13478;BME280;12598;62.382;17.344;2023-02-19T04:45:39;99584.56;;;15.79;23.24
13478;BME280;12598;62.382;17.344;2023-02-19T04:46:41;99576.72;;;15.77;22.86
13478;BME280;12598;62.382;17.344;2023-02-19T04:47:43;99586.56;;;15.77;22.90
13478;BME280;12598;62.382;17.344;2023-02-19T04:48:45;99577.56;;;15.78;23.17
13478;BME280;12598;62.382;17.344;2023-02-19T04:49:47;99586.56;;;15.77;22.96
13478;BME280;12598;62.382;17.344;2023-02-19T04:50:49;99587.22;;;15.79;23.11
13478;BME280;12598;62.382;17.344;2023-02-19T04:51:51;99575.91;;;15.77;22.66
13478;BME280;12598;62.382;17.344;2023-02-19T04:52:53;99592.72;;;15.77;22.85
13478;BME280;12598;62.382;17.344;2023-02-19T04:53:54;99589.22;;;15.77;22.86
13478;BME280;12598;62.382;17.344;2023-02-19T04:54:56;99577.69;;;15.68;22.91
13478;BME280;12598;62.382;17.344;2023-02-19T04:56:06;99587.19;;;15.71;23.08
13478;BME280;12598;62.382;17.344;2023-02-19T04:57:09;99602.22;;;15.80;22.68
13478;BME280;12598;62.382;17.344;2023-02-19T04:58:10;99589.91;;;15.79;23.17
13478;BME280;12598;62.382;17.344;2023-02-19T04:59:12;99587.22;;;15.79;23.15
13478;BME280;12598;62.382;17.344;2023-02-19T05:00:14;99538.81;;;15.50;22.62
13478;BME280;12598;62.382;17.344;2023-02-19T05:01:16;99581.56;;;15.74;22.96
13478;BME280;12598;62.382;17.344;2023-02-19T05:02:18;99590.91;;;15.78;22.96
13478;BME280;12598;62.382;17.344;2023-02-19T05:03:20;99607.03;;;15.76;22.77
13478;BME280;12598;62.382;17.344;2023-02-19T05:04:22;99600.88;;;15.76;23.02
13478;BME280;12598;62.382;17.344;2023-02-19T05:05:24;99595.56;;;15.76;23.00
13478;BME280;12598;62.382;17.344;2023-02-19T05:06:26;99594.56;;;15.77;23.09
13478;BME280;12598;62.382;17.344;2023-02-19T05:07:28;99584.69;;;15.69;22.95
13478;BME280;12598;62.382;17.344;2023-02-19T05:08:30;99595.56;;;15.76;22.92
13478;BME280;12598;62.382;17.344;2023-02-19T05:09:32;99605.38;;;15.75;22.72
13478;BME280;12598;62.382;17.344;2023-02-19T05:10:34;99608.03;;;15.75;22.83
13478;BME280;12598;62.382;17.344;2023-02-19T05:11:36;99599.50;;;15.72;22.80
13478;BME280;12598;62.382;17.344;2023-02-19T05:12:38;99606.22;;;15.76;22.93
13478;BME280;12598;62.382;17.344;2023-02-19T05:13:39;99605.38;;;15.75;22.86
13478;BME280;12598;62.382;17.344;2023-02-19T05:14:41;99603.69;;;15.74;22.86
13478;BME280;12598;62.382;17.344;2023-02-19T05:15:53;99598.84;;;15.70;22.79
13478;BME280;12598;62.382;17.344;2023-02-19T05:16:55;99594.38;;;15.78;22.82
13478;BME280;12598;62.382;17.344;2023-02-19T05:17:57;99597.22;;;15.77;22.56
13478;BME280;12598;62.382;17.344;2023-02-19T05:18:59;99604.53;;;15.75;22.75
13478;BME280;12598;62.382;17.344;2023-02-19T05:20:01;99596.56;;;15.75;22.80
13478;BME280;12598;62.382;17.344;2023-02-19T05:21:03;99595.84;;;15.73;22.76
13478;BME280;12598;62.382;17.344;2023-02-19T05:22:05;99603.69;;;15.74;22.87
13478;BME280;12598;62.382;17.344;2023-02-19T05:23:07;99601.16;;;15.73;22.83
13478;BME280;12598;62.382;17.344;2023-02-19T05:24:08;99587.00;;;15.64;22.73
13478;BME280;12598;62.382;17.344;2023-02-19T05:25:10;99592.00;;;15.67;22.87
13478;BME280;12598;62.382;17.344;2023-02-19T05:26:15;99590.50;;;15.73;22.72
13478;BME280;12598;62.382;17.344;2023-02-19T05:27:20;99599.22;;;15.75;22.66
13478;BME280;12598;62.382;17.344;2023-02-19T05:28:22;99590.69;;;15.71;22.88
13478;BME280;12598;62.382;17.344;2023-02-19T05:29:32;99595.84;;;15.73;22.65
13478;BME280;12598;62.382;17.344;2023-02-19T05:30:34;99613.00;;;15.70;22.65
13478;BME280;12598;62.382;17.344;2023-02-19T05:31:36;99589.34;;;15.67;22.75
13478;BME280;12598;62.382;17.344;2023-02-19T05:32:38;99579.13;;;15.55;22.79
13478;BME280;12598;62.382;17.344;2023-02-19T05:33:40;99602.16;;;15.72;22.93
13478;BME280;12598;62.382;17.344;2023-02-19T05:34:43;99610.16;;;15.72;22.85
13478;BME280;12598;62.382;17.344;2023-02-19T05:35:50;99596.50;;;15.67;22.95
13478;BME280;12598;62.382;17.344;2023-02-19T05:36:52;99599.50;;;15.72;22.55
13478;BME280;12598;62.382;17.344;2023-02-19T05:37:54;99600.50;;;15.71;22.83
13478;BME280;12598;62.382;17.344;2023-02-19T05:38:57;99582.84;;;15.70;22.70
13478;BME280;12598;62.382;17.344;2023-02-19T05:39:59;99603.16;;;15.71;22.62
13478;BME280;12598;62.382;17.344;2023-02-19T05:42:13;99603.16;;;15.71;22.49
13478;BME280;12598;62.382;17.344;2023-02-19T05:43:16;99595.16;;;15.71;22.83
13478;BME280;12598;62.382;17.344;2023-02-19T05:44:18;99602.66;;;15.67;22.56
13478;BME280;12598;62.382;17.344;2023-02-19T05:45:19;99601.50;;;15.70;22.79
13478;BME280;12598;62.382;17.344;2023-02-19T05:46:25;99599.81;;;15.69;22.70
13478;BME280;12598;62.382;17.344;2023-02-19T05:47:27;99593.50;;;15.70;22.87
13478;BME280;12598;62.382;17.344;2023-02-19T05:48:29;99600.69;;;15.69;23.33
13478;BME280;12598;62.382;17.344;2023-02-19T05:49:31;99598.16;;;15.68;22.56
13478;BME280;12598;62.382;17.344;2023-02-19T05:50:34;99592.00;;;15.67;22.92
13478;BME280;12598;62.382;17.344;2023-02-19T05:51:49;99598.69;;;15.71;22.95
13478;BME280;12598;62.382;17.344;2023-02-19T05:52:51;99592.50;;;15.71;22.80
13478;BME280;12598;62.382;17.344;2023-02-19T05:53:54;99597.16;;;15.69;22.87
13478;BME280;12598;62.382;17.344;2023-02-19T05:54:56;99599.81;;;15.69;22.66
13478;BME280;12598;62.382;17.344;2023-02-19T05:55:58;99603.50;;;15.68;22.58
13478;BME280;12598;62.382;17.344;2023-02-19T05:57:00;99600.69;;;15.69;22.56
13478;BME280;12598;62.382;17.344;2023-02-19T05:58:02;99598.16;;;15.68;22.79
13478;BME280;12598;62.382;17.344;2023-02-19T05:59:24;99560.81;;;15.52;22.71
13478;BME280;12598;62.382;17.344;2023-02-19T06:00:26;99590.50;;;15.65;22.78
13478;BME280;12598;62.382;17.344;2023-02-19T06:01:28;99593.50;;;15.70;22.50
13478;BME280;12598;62.382;17.344;2023-02-19T06:02:30;99606.16;;;15.68;22.78
13478;BME280;12598;62.382;17.344;2023-02-19T06:03:32;99586.47;;;15.61;23.00
13478;BME280;12598;62.382;17.344;2023-02-19T06:04:34;99607.16;;;15.67;22.50
13478;BME280;12598;62.382;17.344;2023-02-19T06:05:37;99606.47;;;15.65;22.56
13478;BME280;12598;62.382;17.344;2023-02-19T06:06:40;99609.13;;;15.65;22.99
13478;BME280;12598;62.382;17.344;2023-02-19T06:07:42;99602.13;;;15.64;22.70